Time;durP1;ratioP1;P1;durP2;ratioP2;P2;SDS_P1;SDS_P2;PMS_P1;PMS_P2;Temp;Humidity;BMP_temperature;BMP_pressure;BME280_temperature;BME280_humidity;BME280_pressure;Samples;Min_cycle;Max_cycle;Signal;HPM_P1;HPM_P2
2022/07/12 00:00:27;;;;;;;28.10;26.20;;;17.50;81.10;;;;;;5007367;28;20503;-72
2022/07/12 00:02:54;;;;;;;27.60;26.10;;;17.60;81.10;;;;;;5002811;28;20454;-72
2022/07/12 00:05:21;;;;;;;27.30;25.80;;;17.60;81.10;;;;;;5003147;28;20552;-71
2022/07/12 00:07:48;;;;;;;27.40;25.90;;;17.60;81.10;;;;;;5008292;28;20813;-72
2022/07/12 00:10:15;;;;;;;26.80;25.20;;;17.60;81.00;;;;;;5005861;28;20454;-71
2022/07/12 00:12:44;;;;;;;27.47;25.77;;;17.50;81.40;;;;;;5008770;28;20488;-71
2022/07/12 00:15:11;;;;;;;28.00;26.40;;;17.50;81.50;;;;;;5005849;28;20544;-71
2022/07/12 00:17:38;;;;;;;27.60;25.90;;;17.40;81.60;;;;;;5008590;28;20564;-72
2022/07/12 00:20:07;;;;;;;28.60;26.50;;;17.40;81.80;;;;;;5008118;28;20852;-71
2022/07/12 00:22:34;;;;;;;27.60;26.10;;;17.40;81.80;;;;;;5007163;28;20457;-72
2022/07/12 00:25:01;;;;;;;27.37;25.77;;;17.30;82.10;;;;;;5003081;28;20549;-71
2022/07/12 00:27:28;;;;;;;27.63;26.13;;;17.20;82.20;;;;;;5008361;28;20457;-72
2022/07/12 00:29:57;;;;;;;27.43;25.93;;;17.20;82.50;;;;;;5006905;28;20473;-71
2022/07/12 00:32:24;;;;;;;26.90;25.40;;;17.10;82.70;;;;;;5006794;28;20580;-71
2022/07/12 00:34:51;;;;;;;27.77;26.27;;;17.10;82.70;;;;;;5004580;28;20536;-69
2022/07/12 00:37:18;;;;;;;28.57;26.87;;;17.10;82.70;;;;;;4996924;28;20460;-71
2022/07/12 00:39:45;;;;;;;27.87;26.13;;;17.10;82.90;;;;;;5006491;28;21068;-71
2022/07/12 00:42:11;;;;;;;27.67;26.07;;;17.00;83.20;;;;;;5009260;28;20473;-71
2022/07/12 00:44:38;;;;;;;27.43;25.83;;;16.90;83.40;;;;;;5007972;28;20490;-71
2022/07/12 00:47:07;;;;;;;26.67;25.17;;;16.90;83.70;;;;;;5008153;28;20540;-71
2022/07/12 00:49:34;;;;;;;27.63;26.03;;;16.90;83.80;;;;;;5006796;28;20596;-71
2022/07/12 00:52:01;;;;;;;28.73;26.83;;;16.90;83.70;;;;;;5005827;28;20461;-71
2022/07/12 00:54:28;;;;;;;27.23;25.63;;;16.80;83.80;;;;;;5005860;28;21196;-71
2022/07/12 00:56:55;;;;;;;27.47;25.87;;;16.80;83.80;;;;;;5011942;28;20473;-71
2022/07/12 00:59:22;;;;;;;27.67;25.87;;;16.90;83.60;;;;;;5008614;28;20959;-71
2022/07/12 01:01:49;;;;;;;26.80;25.30;;;16.90;83.60;;;;;;5006998;28;22951;-72
2022/07/12 01:04:18;;;;;;;27.47;25.97;;;16.80;83.90;;;;;;5010634;28;20537;-69
2022/07/12 01:06:45;;;;;;;28.20;26.50;;;16.80;84.00;;;;;;5005895;28;20839;-69
2022/07/12 01:09:12;;;;;;;27.53;25.93;;;16.80;84.30;;;;;;5008137;28;20557;-68
2022/07/12 01:11:39;;;;;;;28.07;26.37;;;16.70;84.40;;;;;;5011161;28;20551;-69
2022/07/12 01:14:07;;;;;;;27.60;25.90;;;16.60;84.90;;;;;;5010805;28;20481;-69
2022/07/12 01:16:34;;;;;;;28.40;26.80;;;16.60;85.00;;;;;;5009252;28;20457;-69
2022/07/12 01:19:05;;;;;;;28.40;26.57;;;16.50;85.10;;;;;;5012823;28;20551;-73
2022/07/12 01:21:38;;;;;;;28.17;26.40;;;16.60;85.10;;;;;;5008880;28;20507;-69
2022/07/12 01:24:09;;;;;;;28.00;26.37;;;16.60;85.20;;;;;;5010307;28;20457;-69
2022/07/12 01:26:36;;;;;;;27.03;25.53;;;16.60;85.00;;;;;;5008512;28;20966;-69
2022/07/12 01:29:05;;;;;;;26.73;25.23;;;16.60;84.90;;;;;;5003647;28;20479;-69
2022/07/12 01:31:32;;;;;;;28.23;26.20;;;16.60;84.80;;;;;;5007128;28;20561;-69
2022/07/12 01:33:59;;;;;;;27.83;26.23;;;16.60;84.70;;;;;;5010175;28;20553;-69
2022/07/12 01:36:26;;;;;;;27.57;25.83;;;16.50;84.90;;;;;;5010627;28;20456;-69
2022/07/12 01:38:53;;;;;;;27.70;26.10;;;16.60;84.90;;;;;;5010463;28;20584;-68
2022/07/12 01:41:23;;;;;;;28.70;27.10;;;16.60;84.70;;;;;;5008620;28;20563;-69
2022/07/12 01:43:50;;;;;;;27.60;25.90;;;16.50;84.90;;;;;;5004960;28;20485;-68
2022/07/12 01:46:17;;;;;;;28.63;26.83;;;16.50;84.90;;;;;;5011159;28;20547;-69
2022/07/12 01:48:44;;;;;;;27.03;25.53;;;16.50;85.10;;;;;;5005338;28;20583;-69
2022/07/12 01:51:11;;;;;;;27.70;26.00;;;16.40;85.40;;;;;;5008903;28;20540;-68
2022/07/12 01:53:38;;;;;;;27.87;26.27;;;16.30;85.50;;;;;;5007443;28;20465;-68
2022/07/12 01:56:05;;;;;;;27.47;25.97;;;16.30;85.80;;;;;;5006617;28;20480;-68
2022/07/12 01:58:34;;;;;;;27.30;25.80;;;16.30;85.80;;;;;;5005700;28;20572;-71
2022/07/12 02:01:00;;;;;;;26.47;24.97;;;16.40;85.60;;;;;;5006713;28;20519;-68
2022/07/12 02:03:27;;;;;;;27.70;26.20;;;16.40;85.50;;;;;;5004940;28;20462;-68
2022/07/12 02:05:54;;;;;;;26.40;24.90;;;16.30;85.50;;;;;;5006719;28;20792;-68
2022/07/12 02:08:21;;;;;;;26.97;25.27;;;16.30;85.80;;;;;;5004317;28;20513;-68
2022/07/12 02:10:48;;;;;;;27.60;26.00;;;16.30;85.80;;;;;;5009279;28;20547;-68
2022/07/12 02:13:15;;;;;;;27.97;26.23;;;16.20;85.90;;;;;;5010434;28;20540;-68
2022/07/12 02:15:43;;;;;;;27.17;25.67;;;16.20;85.90;;;;;;5010982;28;20473;-68
2022/07/12 02:18:10;;;;;;;26.77;25.17;;;16.20;85.90;;;;;;5011180;28;20564;-69
2022/07/12 02:20:37;;;;;;;27.17;25.57;;;16.20;85.70;;;;;;5006678;28;20543;-68
2022/07/12 02:23:04;;;;;;;27.93;26.13;;;16.10;86.10;;;;;;5008146;28;20483;-71
2022/07/12 02:25:31;;;;;;;27.10;25.50;;;16.10;86.30;;;;;;5008101;28;20461;-71
2022/07/12 02:27:58;;;;;;;27.80;26.07;;;16.00;86.50;;;;;;5008879;28;20476;-71
2022/07/12 02:30:25;;;;;;;27.60;26.00;;;16.00;86.60;;;;;;5009246;28;20496;-71
2022/07/12 02:32:53;;;;;;;26.80;25.30;;;16.00;86.60;;;;;;5003891;28;20596;-70
2022/07/12 02:35:20;;;;;;;27.10;25.60;;;15.90;87.00;;;;;;5008191;28;20536;-71
2022/07/12 02:37:47;;;;;;;27.07;25.47;;;15.80;87.10;;;;;;5006012;28;20474;-73
2022/07/12 02:42:59;;;;;;;27.90;26.30;;;15.80;87.20;;;;;;5007033;28;20491;-70
2022/07/12 02:45:26;;;;;;;27.60;26.00;;;15.80;87.20;;;;;;5008706;28;20993;-70
2022/07/12 02:47:54;;;;;;;27.00;25.50;;;15.70;87.40;;;;;;5006952;28;20572;-71
2022/07/12 02:50:21;;;;;;;26.67;25.10;;;15.70;87.70;;;;;;5008971;28;20563;-70
2022/07/12 02:52:48;;;;;;;27.80;26.20;;;15.70;87.50;;;;;;5009093;28;20528;-70
2022/07/12 02:55:15;;;;;;;26.60;25.10;;;15.70;87.50;;;;;;5007457;28;20820;-70
2022/07/12 02:57:42;;;;;;;26.50;25.00;;;15.60;87.60;;;;;;5007527;28;20510;-70
2022/07/12 03:00:10;;;;;;;26.13;24.73;;;15.60;87.70;;;;;;5007873;28;20560;-70
2022/07/12 03:02:37;;;;;;;25.10;23.70;;;15.60;87.80;;;;;;5008109;28;20481;-70
2022/07/12 03:05:07;;;;;;;25.80;24.30;;;15.60;87.60;;;;;;5008066;28;20556;-70
2022/07/12 03:07:34;;;;;;;26.60;25.10;;;15.60;87.50;;;;;;5006090;28;21052;-71
2022/07/12 03:10:01;;;;;;;26.30;24.73;;;15.60;87.50;;;;;;5009542;28;20549;-70
2022/07/12 03:12:28;;;;;;;26.30;24.60;;;15.50;87.80;;;;;;5006020;28;20867;-71
2022/07/12 03:14:55;;;;;;;26.30;24.80;;;15.40;88.00;;;;;;5005631;28;20540;-70
2022/07/12 03:17:22;;;;;;;26.10;24.70;;;15.40;88.00;;;;;;5008323;28;20544;-71
2022/07/12 03:19:49;;;;;;;26.20;24.80;;;15.30;88.30;;;;;;5005286;28;20477;-71
2022/07/12 03:22:18;;;;;;;26.43;25.03;;;15.30;88.60;;;;;;5003113;28;20891;-70
2022/07/12 03:24:44;;;;;;;25.90;24.30;;;15.30;88.50;;;;;;5003467;28;20564;-71
2022/07/12 03:27:11;;;;;;;26.03;24.53;;;15.40;88.20;;;;;;5007161;28;20463;-68
2022/07/12 03:29:39;;;;;;;25.57;24.17;;;15.40;88.10;;;;;;5006829;28;20525;-69
2022/07/12 03:32:07;;;;;;;27.17;25.50;;;15.40;88.20;;;;;;5007027;28;20455;-68
2022/07/12 03:34:34;;;;;;;25.63;24.17;;;15.40;88.00;;;;;;5006564;28;20460;-68
2022/07/12 03:37:01;;;;;;;29.13;27.43;;;15.50;87.70;;;;;;5006771;28;20460;-68
2022/07/12 03:39:29;;;;;;;26.87;25.37;;;15.40;87.80;;;;;;5008994;28;20907;-68
2022/07/12 03:41:56;;;;;;;26.10;24.60;;;15.30;88.20;;;;;;5007950;28;20509;-68
2022/07/12 03:44:24;;;;;;;25.70;24.20;;;15.40;88.00;;;;;;5008346;28;20557;-68
2022/07/12 03:46:51;;;;;;;27.00;25.50;;;15.40;87.90;;;;;;5006091;28;20580;-68
2022/07/12 03:49:18;;;;;;;26.80;25.20;;;15.40;87.80;;;;;;5008758;28;20557;-68
2022/07/12 03:51:44;;;;;;;27.83;26.33;;;15.40;87.90;;;;;;5005347;28;20493;-68
2022/07/12 03:54:11;;;;;;;27.90;26.00;;;15.40;87.80;;;;;;5006546;28;20461;-68
2022/07/12 03:59:24;;;;;;;28.40;26.80;;;15.50;87.80;;;;;;5007357;28;21295;-69
2022/07/12 04:01:51;;;;;;;26.40;24.90;;;15.60;87.40;;;;;;5007480;28;20512;-68
2022/07/12 04:04:18;;;;;;;29.53;27.90;;;15.60;87.10;;;;;;5008539;28;20461;-68
2022/07/12 04:06:45;;;;;;;27.60;26.00;;;15.60;87.20;;;;;;5001406;28;20498;-76
2022/07/12 04:09:13;;;;;;;27.67;26.07;;;15.60;87.10;;;;;;5003678;28;20556;-68
2022/07/12 04:11:41;;;;;;;27.90;26.40;;;15.70;87.00;;;;;;4999878;28;20544;-68
2022/07/12 04:14:08;;;;;;;26.40;24.90;;;15.70;86.70;;;;;;5007634;28;20488;-68
2022/07/12 04:16:35;;;;;;;28.53;26.73;;;15.90;86.30;;;;;;5008274;28;20548;-68
2022/07/12 04:19:02;;;;;;;27.10;25.60;;;15.90;85.90;;;;;;5007034;28;20572;-68
2022/07/12 04:21:29;;;;;;;31.27;29.67;;;16.10;85.30;;;;;;5009021;28;20557;-68
2022/07/12 04:23:56;;;;;;;26.87;25.27;;;16.20;85.10;;;;;;5007503;28;20532;-69
2022/07/12 04:26:23;;;;;;;27.90;26.10;;;16.20;84.80;;;;;;5002267;28;20540;-68
2022/07/12 04:28:51;;;;;;;30.37;28.67;;;16.40;84.20;;;;;;5005314;28;20560;-68
2022/07/12 04:31:18;;;;;;;31.77;30.00;;;16.50;83.70;;;;;;5006041;28;20485;-71
2022/07/12 04:33:45;;;;;;;27.00;25.50;;;16.50;83.40;;;;;;5005268;28;20552;-71
2022/07/12 04:36:12;;;;;;;27.60;26.00;;;16.50;83.20;;;;;;4997745;28;20544;-71
2022/07/12 04:38:39;;;;;;;26.83;25.33;;;16.30;83.60;;;;;;5007231;28;20552;-73
2022/07/12 04:41:06;;;;;;;33.10;31.30;;;16.20;84.20;;;;;;5007050;28;20492;-69
2022/07/12 04:43:33;;;;;;;32.50;30.80;;;16.20;84.70;;;;;;5006510;28;20469;-70
2022/07/12 04:46:08;;;;;;;28.07;26.30;;;16.20;84.50;;;;;;5007309;28;20867;-71
2022/07/12 04:48:35;;;;;;;30.00;28.20;;;16.40;84.30;;;;;;5007590;28;20468;-70
2022/07/12 04:51:02;;;;;;;28.60;26.90;;;16.50;84.10;;;;;;5001288;28;20461;-75
2022/07/12 04:53:29;;;;;;;28.47;26.90;;;16.60;84.00;;;;;;5002515;28;20461;-69
2022/07/12 04:55:56;;;;;;;27.43;25.93;;;16.70;83.50;;;;;;5002402;28;20462;-70
2022/07/12 04:58:23;;;;;;;31.80;29.90;;;16.90;83.10;;;;;;5005671;28;20513;-70
2022/07/12 05:00:51;;;;;;;27.33;25.83;;;17.10;82.00;;;;;;5002680;28;21081;-70
2022/07/12 05:03:19;;;;;;;29.70;27.70;;;17.20;81.80;;;;;;5008048;28;20496;-74
2022/07/12 05:05:46;;;;;;;28.97;27.37;;;17.30;81.10;;;;;;5005689;28;20548;-70
2022/07/12 05:08:13;;;;;;;27.20;25.70;;;17.40;81.00;;;;;;5003391;28;20522;-69
2022/07/12 05:10:40;;;;;;;29.43;27.80;;;17.50;80.50;;;;;;5006077;28;20481;-71
2022/07/12 05:13:08;;;;;;;30.53;28.67;;;17.40;81.00;;;;;;5008001;28;20503;-70
2022/07/12 05:15:35;;;;;;;27.93;26.33;;;17.30;80.90;;;;;;5004356;28;20549;-70
2022/07/12 05:18:02;;;;;;;29.97;28.17;;;17.30;81.00;;;;;;5006314;28;20557;-69
2022/07/12 05:20:30;;;;;;;27.80;26.10;;;17.50;81.00;;;;;;5007457;28;20580;-69
2022/07/12 05:22:57;;;;;;;27.17;25.63;;;17.70;80.40;;;;;;5006945;28;20492;-69
2022/07/12 05:25:24;;;;;;;28.20;26.43;;;17.80;80.10;;;;;;5005368;28;20480;-68
2022/07/12 05:27:51;;;;;;;29.53;27.63;;;17.90;79.90;;;;;;5005603;28;20557;-68
2022/07/12 05:30:18;;;;;;;32.73;30.83;;;17.90;79.80;;;;;;5007152;28;20463;-68
2022/07/12 05:32:45;;;;;;;30.23;28.53;;;18.10;79.80;;;;;;5006594;28;20540;-71
2022/07/12 05:35:13;;;;;;;29.53;27.73;;;18.20;79.50;;;;;;4999609;28;20560;-68
2022/07/12 05:37:45;;;;;;;31.93;29.93;;;18.30;79.20;;;;;;5007206;28;20556;-71
2022/07/12 05:40:12;;;;;;;32.10;30.10;;;18.40;79.20;;;;;;5005137;28;20598;-71
2022/07/12 05:42:39;;;;;;;32.30;30.40;;;18.50;78.80;;;;;;5011201;28;20464;-72
2022/07/12 05:45:08;;;;;;;30.57;28.77;;;18.70;77.90;;;;;;5008814;28;20540;-73
2022/07/12 05:47:35;;;;;;;33.80;31.70;;;18.80;77.70;;;;;;5010848;28;20451;-74
2022/07/12 05:50:02;;;;;;;31.90;30.03;;;19.00;77.20;;;;;;5011858;28;20537;-74
2022/07/12 05:55:15;;;;;;;31.77;29.87;;;19.20;76.40;;;;;;5000947;28;20480;-72
2022/07/12 05:57:42;;;;;;;32.37;30.47;;;19.10;76.30;;;;;;5011035;28;21041;-73
2022/07/12 06:00:11;;;;;;;31.10;29.30;;;19.20;76.20;;;;;;5009448;28;21007;-74
2022/07/12 06:02:38;;;;;;;32.10;30.20;;;19.30;75.70;;;;;;5012127;28;20458;-73
2022/07/12 06:05:05;;;;;;;34.33;32.33;;;19.30;75.70;;;;;;5010764;28;20550;-73
2022/07/12 06:07:33;;;;;;;32.53;30.63;;;19.40;75.60;;;;;;5012047;28;20487;-71
2022/07/12 06:10:01;;;;;;;31.57;29.77;;;19.50;75.70;;;;;;5010136;28;20463;-72
2022/07/12 06:12:29;;;;;;;30.60;28.80;;;19.60;75.30;;;;;;5008510;28;20469;-74
2022/07/12 06:14:56;;;;;;;30.00;27.87;;;19.80;74.70;;;;;;5004762;28;20469;-74
2022/07/12 06:17:23;;;;;;;34.60;32.47;;;19.90;74.20;;;;;;5004805;28;20557;-73
2022/07/12 06:19:51;;;;;;;32.50;30.50;;;20.10;73.60;;;;;;5003100;28;20482;-71
2022/07/12 06:22:18;;;;;;;33.10;31.00;;;20.10;73.60;;;;;;5009498;28;20520;-73
2022/07/12 06:24:45;;;;;;;33.60;31.60;;;20.10;73.30;;;;;;5010432;28;20507;-73
2022/07/12 06:27:12;;;;;;;31.00;28.80;;;20.10;71.90;;;;;;5012144;28;20467;-73
2022/07/12 06:29:41;;;;;;;33.23;30.93;;;20.10;71.80;;;;;;5011908;28;20494;-71
2022/07/12 06:32:08;;;;;;;30.20;28.30;;;20.10;71.70;;;;;;5008892;28;20467;-72
2022/07/12 06:34:38;;;;;;;29.87;28.07;;;20.20;71.10;;;;;;5009003;28;20500;-70
2022/07/12 06:37:08;;;;;;;30.20;28.50;;;20.30;70.00;;;;;;5011053;28;20470;-77
2022/07/12 06:39:35;;;;;;;31.40;29.60;;;20.30;70.20;;;;;;5003901;28;20465;-74
2022/07/12 06:42:03;;;;;;;28.70;27.00;;;20.30;69.60;;;;;;5010186;28;20470;-75
2022/07/12 06:44:30;;;;;;;29.23;27.40;;;20.30;70.00;;;;;;5011290;28;20455;-72
2022/07/12 06:46:59;;;;;;;33.50;31.60;;;20.30;69.80;;;;;;5011689;28;20457;-73
2022/07/12 06:49:26;;;;;;;28.30;26.70;;;20.40;69.70;;;;;;5011899;28;20552;-74
2022/07/12 06:51:53;;;;;;;28.70;27.00;;;20.50;69.60;;;;;;5003475;28;20476;-72
2022/07/12 06:54:20;;;;;;;29.50;27.47;;;20.70;68.90;;;;;;5009915;28;20536;-72
2022/07/12 06:56:47;;;;;;;31.97;30.07;;;20.70;68.30;;;;;;5008110;28;20481;-73
2022/07/12 06:59:14;;;;;;;31.20;29.50;;;20.90;68.00;;;;;;5010249;28;20990;-73
2022/07/12 07:01:41;;;;;;;30.77;28.97;;;21.00;67.70;;;;;;5009250;28;20542;-73
2022/07/12 07:04:09;;;;;;;28.43;26.73;;;20.90;67.90;;;;;;5004069;28;20974;-72
2022/07/12 07:06:36;;;;;;;29.20;27.50;;;20.90;67.90;;;;;;5008603;28;20955;-73
2022/07/12 07:09:06;;;;;;;30.77;28.97;;;20.80;67.80;;;;;;5010071;28;20488;-72
2022/07/12 07:11:34;;;;;;;30.17;28.17;;;20.90;67.60;;;;;;5006061;28;20556;-71
2022/07/12 07:14:01;;;;;;;28.13;26.37;;;20.90;67.60;;;;;;5008229;28;20525;-71
2022/07/12 07:16:28;;;;;;;28.33;26.23;;;21.00;67.10;;;;;;5010432;28;20484;-73
2022/07/12 07:18:55;;;;;;;31.30;29.40;;;21.00;67.30;;;;;;5009298;28;21086;-73
2022/07/12 07:21:24;;;;;;;29.90;27.77;;;21.10;67.00;;;;;;5009618;28;20819;-74
2022/07/12 07:23:51;;;;;;;31.87;29.97;;;21.20;66.70;;;;;;5009024;28;20890;-72
2022/07/12 07:26:18;;;;;;;31.00;29.10;;;21.40;65.40;;;;;;5008563;28;20469;-69
2022/07/12 07:31:29;;;;;;;31.80;29.93;;;21.50;64.60;;;;;;5007077;28;20438;-72
2022/07/12 07:33:56;;;;;;;29.30;27.30;;;21.60;64.90;;;;;;5008669;28;20456;-74
2022/07/12 07:36:24;;;;;;;30.53;28.53;;;21.70;64.70;;;;;;5008462;28;20484;-73
2022/07/12 07:38:51;;;;;;;31.30;29.50;;;21.70;64.70;;;;;;5009480;28;20509;-69
2022/07/12 07:41:18;;;;;;;28.63;26.93;;;21.80;63.20;;;;;;5009714;28;20597;-72
2022/07/12 07:43:48;;;;;;;27.80;26.10;;;21.70;63.50;;;;;;5008435;28;20467;-72
2022/07/12 07:46:15;;;;;;;27.33;25.83;;;21.80;63.00;;;;;;5005389;28;20579;-71
2022/07/12 07:48:42;;;;;;;30.13;28.43;;;21.90;63.00;;;;;;5009613;28;20511;-71
2022/07/12 07:51:09;;;;;;;27.50;25.90;;;21.80;63.10;;;;;;5005536;28;20530;-70
2022/07/12 07:53:38;;;;;;;28.53;26.93;;;22.00;61.60;;;;;;5006290;28;20488;-70
2022/07/12 07:56:05;;;;;;;27.70;26.10;;;22.00;61.80;;;;;;5008328;28;20554;-69
2022/07/12 07:58:32;;;;;;;27.47;25.97;;;22.20;60.40;;;;;;5008131;28;20912;-68
2022/07/12 08:01:00;;;;;;;29.60;28.00;;;22.30;60.50;;;;;;5010119;28;21061;-69
2022/07/12 08:03:27;;;;;;;27.73;26.23;;;22.40;60.30;;;;;;5006420;28;21179;-68
2022/07/12 08:05:57;;;;;;;28.30;26.70;;;22.50;60.10;;;;;;5005075;28;20471;-68
2022/07/12 08:08:24;;;;;;;28.90;27.40;;;22.60;60.60;;;;;;5004104;28;20485;-69
2022/07/12 08:10:52;;;;;;;26.70;25.10;;;22.40;61.10;;;;;;5002012;28;20457;-69
2022/07/12 08:13:20;;;;;;;28.73;27.33;;;22.50;61.10;;;;;;5006753;28;20588;-68
2022/07/12 08:15:47;;;;;;;27.97;26.50;;;22.60;59.00;;;;;;5006171;28;20460;-69
2022/07/12 08:18:14;;;;;;;26.60;25.20;;;22.60;58.90;;;;;;5007767;28;20567;-69
2022/07/12 08:20:41;;;;;;;29.70;28.10;;;22.50;58.40;;;;;;5006463;28;21140;-69
2022/07/12 08:23:08;;;;;;;27.10;25.70;;;22.60;58.50;;;;;;5007486;28;20584;-69
2022/07/12 08:25:36;;;;;;;26.47;25.07;;;22.60;59.10;;;;;;5008927;28;20543;-73
2022/07/12 08:28:06;;;;;;;26.43;25.03;;;22.70;59.60;;;;;;5004609;28;20560;-68
2022/07/12 08:30:33;;;;;;;28.60;27.00;;;22.70;59.40;;;;;;5003169;28;20452;-72
2022/07/12 08:33:00;;;;;;;29.60;28.00;;;22.70;58.80;;;;;;5005090;28;21567;-72
2022/07/12 08:35:27;;;;;;;27.83;26.33;;;22.80;58.80;;;;;;5008586;28;21188;-71
2022/07/12 08:37:54;;;;;;;28.90;27.30;;;22.80;58.40;;;;;;5007245;28;20485;-71
2022/07/12 08:40:22;;;;;;;27.10;25.70;;;22.90;58.80;;;;;;5008897;28;20475;-71
2022/07/12 08:42:52;;;;;;;27.93;26.40;;;23.00;57.80;;;;;;5005160;28;21138;-72
2022/07/12 08:45:21;;;;;;;27.53;26.13;;;22.90;58.10;;;;;;5006569;28;21034;-73
2022/07/12 08:47:48;;;;;;;28.70;27.10;;;23.10;57.90;;;;;;5006192;28;20581;-73
2022/07/12 08:50:18;;;;;;;27.20;25.80;;;23.10;57.60;;;;;;5008882;28;20464;-69
2022/07/12 08:52:47;;;;;;;27.00;25.40;;;23.00;57.90;;;;;;5004888;28;20469;-71
2022/07/12 08:55:21;;;;;;;28.20;26.63;;;23.00;57.80;;;;;;5007616;28;20867;-72
2022/07/12 08:57:53;;;;;;;26.83;25.43;;;23.10;58.10;;;;;;5007344;28;20592;-70
2022/07/12 09:00:21;;;;;;;27.37;25.87;;;23.30;57.90;;;;;;5008432;28;20519;-70
2022/07/12 09:02:50;;;;;;;27.10;25.60;;;23.40;57.80;;;;;;5005805;28;20553;-71
2022/07/12 09:05:18;;;;;;;28.27;26.57;;;23.60;57.30;;;;;;4999307;28;21101;-70
2022/07/12 09:07:46;;;;;;;29.70;27.80;;;23.70;57.00;;;;;;4998417;28;20504;-70
2022/07/12 09:10:14;;;;;;;28.40;26.70;;;23.70;56.80;;;;;;5006814;28;21026;-70
2022/07/12 09:12:44;;;;;;;26.67;25.27;;;23.70;57.30;;;;;;5005842;28;20544;-70
2022/07/12 09:15:14;;;;;;;29.17;27.47;;;23.80;57.10;;;;;;5008440;28;20531;-72
2022/07/12 09:17:47;;;;;;;29.10;27.50;;;24.10;56.10;;;;;;5010135;28;20564;-71
2022/07/12 09:20:16;;;;;;;30.90;29.20;;;24.20;55.50;;;;;;5011405;28;20484;-69
2022/07/12 09:22:52;;;;;;;26.70;25.30;;;24.10;56.10;;;;;;5009796;28;20536;-70
2022/07/12 09:25:19;;;;;;;27.53;26.03;;;24.30;55.60;;;;;;5008820;28;20475;-71
2022/07/12 09:27:53;;;;;;;28.60;27.03;;;24.40;54.70;;;;;;5009146;28;20555;-71
2022/07/12 09:30:21;;;;;;;28.53;27.03;;;24.30;54.50;;;;;;5011608;28;20511;-71
2022/07/12 09:38:22;;;;;;;26.30;24.70;;;23.60;56.30;;;;;;5007654;28;20484;-72
2022/07/12 09:40:50;;;;;;;27.43;25.93;;;23.60;55.90;;;;;;5008961;28;20572;-70
2022/07/12 09:43:18;;;;;;;29.50;27.90;;;23.50;56.20;;;;;;5006088;28;20475;-71
2022/07/12 09:45:47;;;;;;;29.77;28.13;;;23.20;56.40;;;;;;5011164;28;20795;-71
2022/07/12 09:48:16;;;;;;;28.00;26.47;;;23.30;57.00;;;;;;5008366;28;20851;-70
2022/07/12 09:50:47;;;;;;;28.00;26.20;;;23.50;56.60;;;;;;5010232;28;20942;-71
2022/07/12 09:53:20;;;;;;;29.40;27.80;;;23.70;56.10;;;;;;5010374;28;20461;-71
2022/07/12 09:55:51;;;;;;;28.10;26.60;;;24.00;55.40;;;;;;4997159;28;20452;-71
2022/07/12 09:58:24;;;;;;;27.27;25.67;;;23.80;55.20;;;;;;5007816;28;20489;-70
2022/07/12 10:00:53;;;;;;;30.70;29.00;;;23.70;55.50;;;;;;5009954;28;20907;-71
2022/07/12 10:03:24;;;;;;;31.40;29.70;;;23.60;56.10;;;;;;5009453;28;20973;-71
2022/07/12 10:05:55;;;;;;;28.90;27.30;;;23.80;55.70;;;;;;5009819;28;20970;-71
2022/07/12 10:08:22;;;;;;;26.70;25.20;;;24.10;54.60;;;;;;5009069;28;20920;-71
2022/07/12 10:10:51;;;;;;;26.47;24.93;;;24.30;53.50;;;;;;5009805;28;20453;-71
2022/07/12 10:13:21;;;;;;;27.90;26.30;;;24.10;53.80;;;;;;5008797;28;20460;-69
2022/07/12 10:15:49;;;;;;;29.63;28.03;;;24.10;55.00;;;;;;5005455;28;20555;-69
2022/07/12 10:18:18;;;;;;;27.33;25.93;;;23.90;55.50;;;;;;5004320;28;20481;-69
2022/07/12 10:20:47;;;;;;;28.37;26.67;;;23.70;55.80;;;;;;5009779;28;20492;-69
2022/07/12 10:23:34;;;;;;;28.47;26.87;;;23.70;55.80;;;;;;5010382;28;20512;-68
2022/07/12 10:26:01;;;;;;;27.30;25.80;;;23.60;56.70;;;;;;5007530;28;21013;-69
2022/07/12 10:28:55;;;;;;;26.60;25.20;;;23.70;56.90;;;;;;5007316;28;20472;-69
2022/07/12 10:31:24;;;;;;;27.37;25.70;;;23.80;56.20;;;;;;5001215;28;20959;-68
2022/07/12 10:34:14;;;;;;;26.20;24.80;;;24.00;56.20;;;;;;5009188;28;20485;-69
2022/07/12 10:37:11;;;;;;;28.30;26.73;;;24.20;55.10;;;;;;5008768;28;20461;-69
2022/07/12 10:39:38;;;;;;;27.20;25.70;;;24.40;54.70;;;;;;5006860;28;20524;-68
2022/07/12 10:42:16;;;;;;;26.57;25.17;;;24.40;53.80;;;;;;5009294;28;20591;-69
2022/07/12 10:44:46;;;;;;;27.00;25.60;;;24.30;53.70;;;;;;5009415;28;20465;-69
2022/07/12 10:47:16;;;;;;;29.00;27.30;;;24.40;54.20;;;;;;5006306;28;20489;-69
2022/07/12 10:49:52;;;;;;;29.10;27.40;;;24.40;54.60;;;;;;5004316;28;20478;-69
2022/07/12 10:52:29;;;;;;;28.90;27.40;;;24.50;54.40;;;;;;5000480;28;20445;-69
2022/07/12 10:55:18;;;;;;;29.93;28.33;;;24.60;53.80;;;;;;5002379;28;20586;-69
2022/07/12 10:57:49;;;;;;;30.23;28.53;;;24.80;53.70;;;;;;4997921;28;20985;-69
2022/07/12 11:00:23;;;;;;;28.30;26.70;;;24.60;53.60;;;;;;5008085;28;20457;-69
2022/07/12 11:02:50;;;;;;;31.50;29.80;;;24.50;54.20;;;;;;5003905;28;20574;-69
2022/07/12 11:05:24;;;;;;;31.03;29.37;;;24.40;54.10;;;;;;5010329;28;20458;-70
2022/07/12 11:07:54;;;;;;;27.93;26.33;;;24.40;54.70;;;;;;5003967;28;20513;-71
2022/07/12 11:10:22;;;;;;;32.57;30.67;;;24.50;54.80;;;;;;5007563;28;20561;-71
2022/07/12 11:12:48;;;;;;;27.43;25.73;;;24.70;54.30;;;;;;5011258;28;20536;-70
2022/07/12 11:15:15;;;;;;;31.27;29.47;;;24.90;53.70;;;;;;5007179;28;21019;-69
2022/07/12 11:17:42;;;;;;;31.00;29.20;;;25.00;53.70;;;;;;5006471;28;20532;-71
2022/07/12 11:20:11;;;;;;;28.50;26.90;;;25.10;53.50;;;;;;5003884;28;20490;-71
2022/07/12 11:22:40;;;;;;;30.47;28.67;;;25.20;53.10;;;;;;5005122;28;21021;-71
2022/07/12 11:25:11;;;;;;;27.87;26.30;;;25.10;52.60;;;;;;5006925;28;20818;-71
2022/07/12 11:27:38;;;;;;;30.00;28.40;;;25.20;52.50;;;;;;5006809;28;20493;-71
2022/07/12 11:30:08;;;;;;;27.57;25.70;;;25.20;52.70;;;;;;5004750;28;20839;-71
2022/07/12 11:32:36;;;;;;;31.27;29.27;;;25.20;52.00;;;;;;4998947;28;20550;-71
2022/07/12 11:35:04;;;;;;;28.13;26.53;;;25.00;52.60;;;;;;5007777;28;20497;-70
2022/07/12 11:37:31;;;;;;;28.80;27.20;;;25.10;53.10;;;;;;5008401;28;20900;-70
2022/07/12 11:39:58;;;;;;;26.93;25.40;;;25.20;52.80;;;;;;5007299;28;20466;-71
2022/07/12 11:42:26;;;;;;;30.60;28.90;;;25.30;52.90;;;;;;5007501;28;20479;-71
2022/07/12 11:44:53;;;;;;;27.83;26.33;;;25.40;53.00;;;;;;5009430;28;20467;-71
2022/07/12 11:47:22;;;;;;;30.40;28.60;;;25.50;52.60;;;;;;5004184;28;20519;-72
2022/07/12 11:49:52;;;;;;;31.00;29.30;;;25.60;51.90;;;;;;5005216;28;20486;-71
2022/07/12 11:52:22;;;;;;;31.43;29.53;;;25.70;50.80;;;;;;5008806;28;20455;-70
2022/07/12 11:54:51;;;;;;;28.93;27.33;;;25.70;51.30;;;;;;5004880;28;20900;-71
2022/07/12 11:57:21;;;;;;;30.33;28.60;;;25.70;51.10;;;;;;5007988;28;20668;-71
2022/07/12 11:59:49;;;;;;;30.90;29.10;;;25.70;50.50;;;;;;5009358;28;21209;-71
2022/07/12 12:02:17;;;;;;;28.80;27.20;;;25.80;50.70;;;;;;4995677;28;20565;-71
2022/07/12 12:04:50;;;;;;;28.70;27.20;;;25.80;50.00;;;;;;5001506;28;20467;-70
2022/07/12 12:07:17;;;;;;;31.17;29.27;;;25.80;50.10;;;;;;5000363;28;20465;-71
2022/07/12 12:10:00;;;;;;;29.97;28.27;;;25.50;50.50;;;;;;5009722;28;20484;-70
2022/07/12 12:12:28;;;;;;;30.40;28.60;;;25.50;50.90;;;;;;5008162;28;20965;-71
2022/07/12 12:14:57;;;;;;;30.57;28.77;;;25.50;51.00;;;;;;5007431;28;20520;-72
2022/07/12 12:17:24;;;;;;;31.60;30.00;;;25.70;50.40;;;;;;5007741;28;20548;-71
2022/07/12 12:19:51;;;;;;;32.67;30.83;;;25.80;49.50;;;;;;5009243;28;20610;-71
2022/07/12 12:22:34;;;;;;;29.40;27.70;;;25.80;50.30;;;;;;5002505;28;21093;-71
2022/07/12 12:25:02;;;;;;;29.67;27.97;;;25.80;49.40;;;;;;5009483;28;20488;-70
2022/07/12 12:27:29;;;;;;;29.10;27.47;;;25.80;49.40;;;;;;5009393;28;21090;-71
2022/07/12 12:30:06;;;;;;;30.90;29.20;;;25.90;49.40;;;;;;5006066;28;20558;-70
2022/07/12 12:32:44;;;;;;;27.87;26.33;;;26.00;48.40;;;;;;5005036;28;20831;-71
2022/07/12 12:35:14;;;;;;;31.07;29.33;;;25.90;48.20;;;;;;5000206;28;20461;-71
2022/07/12 12:37:41;;;;;;;29.90;28.30;;;25.90;48.80;;;;;;5002701;28;20457;-71
2022/07/12 12:40:09;;;;;;;30.20;28.50;;;26.10;48.40;;;;;;5004990;28;20472;-71
2022/07/12 12:42:36;;;;;;;29.20;27.60;;;26.20;48.10;;;;;;5005490;28;20480;-71
2022/07/12 12:45:05;;;;;;;29.80;28.10;;;26.20;47.60;;;;;;5008399;28;20503;-71
2022/07/12 12:47:53;;;;;;;32.50;30.70;;;26.20;46.30;;;;;;5002149;28;20456;-71
2022/07/12 12:50:42;;;;;;;31.93;30.23;;;26.10;47.00;;;;;;4996726;28;20547;-71